Time;durP1;ratioP1;P1;durP2;ratioP2;P2;SDS_P1;SDS_P2;PMS_P1;PMS_P2;Temp;Humidity;BMP_temperature;BMP_pressure;BME280_temperature;BME280_humidity;BME280_pressure;Samples;Min_cycle;Max_cycle;Signal;HPM_P1;HPM_P2
2022/01/19 00:01:12;;;;;;;13.85;8.63;;;;;;;;;;6271570;22;20045;-64
2022/01/19 00:03:38;;;;;;;18.33;9.02;;;;;;;;;;6271949;22;20071;-64
2022/01/19 00:06:04;;;;;;;19.90;9.88;;;;;;;;;;6271167;22;20228;-64
2022/01/19 00:08:30;;;;;;;19.05;9.45;;;;;;;;;;6270996;22;20014;-64
2022/01/19 00:10:57;;;;;;;22.88;8.98;;;;;;;;;;6270787;22;20020;-64
2022/01/19 00:13:23;;;;;;;20.92;10.02;;;;;;;;;;6271309;22;20075;-64
2022/01/19 00:15:50;;;;;;;17.58;9.63;;;;;;;;;;6270844;22;20054;-64
2022/01/19 00:18:17;;;;;;;15.65;9.60;;;;;;;;;;6270823;22;20064;-64
2022/01/19 00:20:44;;;;;;;14.77;8.90;;;;;;;;;;6271428;22;20055;-64
2022/01/19 00:23:11;;;;;;;18.00;8.88;;;;;;;;;;6271505;22;20071;-64
2022/01/19 00:25:38;;;;;;;16.00;8.07;;;;;;;;;;6274732;22;20409;-64
2022/01/19 00:28:04;;;;;;;19.50;9.82;;;;;;;;;;6272426;22;20033;-64
2022/01/19 00:30:31;;;;;;;14.10;8.95;;;;;;;;;;6273704;22;20034;-64
2022/01/19 00:32:57;;;;;;;26.05;9.02;;;;;;;;;;6272154;22;20231;-64
2022/01/19 00:35:23;;;;;;;17.95;8.90;;;;;;;;;;6273307;22;20011;-65
2022/01/19 00:37:49;;;;;;;13.57;10.27;;;;;;;;;;6272904;22;20006;-64
2022/01/19 00:40:16;;;;;;;19.50;9.15;;;;;;;;;;6273003;22;20007;-68
2022/01/19 00:42:45;;;;;;;22.02;11.73;;;;;;;;;;6272491;22;20069;-64
2022/01/19 00:45:12;;;;;;;24.02;9.48;;;;;;;;;;6273327;22;20033;-64
2022/01/19 00:47:38;;;;;;;19.13;8.68;;;;;;;;;;6272467;22;20007;-64
2022/01/19 00:50:05;;;;;;;24.85;10.85;;;;;;;;;;6274179;22;20078;-65
2022/01/19 00:52:32;;;;;;;16.58;9.45;;;;;;;;;;6272538;22;20552;-65
2022/01/19 00:54:58;;;;;;;17.10;10.45;;;;;;;;;;6273444;22;20004;-64
2022/01/19 00:57:24;;;;;;;19.08;10.95;;;;;;;;;;6272824;22;20488;-64
2022/01/19 00:59:52;;;;;;;21.08;8.48;;;;;;;;;;6273635;22;20000;-64
2022/01/19 01:02:18;;;;;;;11.90;8.10;;;;;;;;;;6272832;22;19999;-71
2022/01/19 01:04:44;;;;;;;22.73;11.25;;;;;;;;;;6273706;22;20342;-64
2022/01/19 01:07:10;;;;;;;16.33;8.88;;;;;;;;;;6272619;22;20000;-64
2022/01/19 01:09:36;;;;;;;22.02;9.80;;;;;;;;;;6277470;22;20074;-65
2022/01/19 01:12:11;;;;;;;20.20;8.32;;;;;;;;;;6277454;22;20003;-68
2022/01/19 01:20:09;;;;;;;13.90;9.15;;;;;;;;;;6272584;22;20038;-64
2022/01/19 01:22:36;;;;;;;18.98;8.52;;;;;;;;;;6272933;22;20002;-64
2022/01/19 01:25:02;;;;;;;18.63;9.90;;;;;;;;;;6272100;22;20006;-65
2022/01/19 01:27:28;;;;;;;18.92;8.63;;;;;;;;;;6272163;22;20075;-64
2022/01/19 01:29:54;;;;;;;14.40;8.23;;;;;;;;;;6272524;22;20000;-64
2022/01/19 01:32:20;;;;;;;14.88;8.13;;;;;;;;;;6272686;22;20424;-64
2022/01/19 01:34:46;;;;;;;17.88;8.55;;;;;;;;;;6272827;22;20011;-64
2022/01/19 01:37:12;;;;;;;15.80;7.97;;;;;;;;;;6272551;22;20000;-65
2022/01/19 01:39:39;;;;;;;21.80;9.15;;;;;;;;;;6273043;22;20327;-63
2022/01/19 01:42:09;;;;;;;16.52;9.48;;;;;;;;;;6273926;22;20000;-69
2022/01/19 01:44:36;;;;;;;22.10;8.68;;;;;;;;;;6271570;22;20008;-64
2022/01/19 01:47:02;;;;;;;17.70;9.35;;;;;;;;;;6273242;22;20330;-64
2022/01/19 01:49:42;;;;;;;26.08;10.65;;;;;;;;;;6270221;22;20329;-64
2022/01/19 01:54:53;;;;;;;21.05;8.90;;;;;;;;;;6272656;22;20015;-64
2022/01/19 01:57:19;;;;;;;15.10;8.45;;;;;;;;;;6272905;22;20308;-64
2022/01/19 01:59:46;;;;;;;11.75;7.88;;;;;;;;;;6272105;22;20019;-64
2022/01/19 02:02:12;;;;;;;18.83;9.13;;;;;;;;;;6272229;22;20047;-64
2022/01/19 02:04:41;;;;;;;22.70;9.13;;;;;;;;;;6272595;22;20006;-64
2022/01/19 02:07:33;;;;;;;20.25;8.98;;;;;;;;;;6272116;22;20383;-64
2022/01/19 02:09:59;;;;;;;16.20;8.13;;;;;;;;;;6271393;22;20325;-64
2022/01/19 02:23:43;;;;;;;19.85;8.65;;;;;;;;;;6273285;22;20010;-63
2022/01/19 02:26:16;;;;;;;14.80;7.38;;;;;;;;;;6272608;22;20011;-64
2022/01/19 02:29:15;;;;;;;15.82;7.78;;;;;;;;;;6271460;22;20003;-64
2022/01/19 02:42:30;;;;;;;17.65;8.02;;;;;;;;;;6271773;22;20015;-64
2022/01/19 02:49:53;;;;;;;14.63;6.57;;;;;;;;;;6272074;22;20090;-64
2022/01/19 02:52:21;;;;;;;13.55;6.35;;;;;;;;;;6272331;22;20364;-64
2022/01/19 02:54:49;;;;;;;15.23;7.05;;;;;;;;;;6270331;22;20083;-67
2022/01/19 02:57:15;;;;;;;11.77;6.03;;;;;;;;;;6272450;22;20034;-63
2022/01/19 03:10:36;;;;;;;12.98;5.28;;;;;;;;;;6271859;22;20022;-64
2022/01/19 03:13:02;;;;;;;15.48;6.07;;;;;;;;;;6271198;22;20031;-64
2022/01/19 03:15:28;;;;;;;10.82;6.07;;;;;;;;;;6271252;22;20000;-63
2022/01/19 03:17:58;;;;;;;7.20;5.43;;;;;;;;;;6270476;22;20007;-64
2022/01/19 03:20:24;;;;;;;8.52;5.03;;;;;;;;;;6272038;22;20374;-65
2022/01/19 03:25:23;;;;;;;9.25;4.80;;;;;;;;;;6281996;22;20643;-64
2022/01/19 03:27:49;;;;;;;16.77;5.05;;;;;;;;;;6271533;22;20008;-65
2022/01/19 03:30:16;;;;;;;8.55;4.35;;;;;;;;;;6271287;22;20014;-65
2022/01/19 03:32:42;;;;;;;8.43;4.95;;;;;;;;;;6271544;22;20018;-64
2022/01/19 03:35:09;;;;;;;11.48;4.38;;;;;;;;;;6271873;22;20385;-65
2022/01/19 03:37:35;;;;;;;8.15;4.15;;;;;;;;;;6270911;22;20000;-65
2022/01/19 03:40:02;;;;;;;12.98;4.57;;;;;;;;;;6271902;22;20071;-64
2022/01/19 03:42:28;;;;;;;8.85;3.65;;;;;;;;;;6269867;22;20000;-64
2022/01/19 03:44:54;;;;;;;9.35;3.80;;;;;;;;;;6271315;22;20007;-64
2022/01/19 03:47:20;;;;;;;9.73;4.57;;;;;;;;;;6270247;22;20015;-64
2022/01/19 03:49:46;;;;;;;9.93;5.00;;;;;;;;;;6270223;22;20003;-64
2022/01/19 03:52:12;;;;;;;5.53;3.47;;;;;;;;;;6270973;22;20003;-64
2022/01/19 03:54:39;;;;;;;7.85;4.03;;;;;;;;;;6271133;22;20053;-64
2022/01/19 03:57:06;;;;;;;6.35;3.05;;;;;;;;;;6270836;22;19995;-63
2022/01/19 03:59:32;;;;;;;10.57;4.40;;;;;;;;;;6271406;22;20004;-64
2022/01/19 04:01:58;;;;;;;5.68;4.20;;;;;;;;;;6271097;22;20000;-67
2022/01/19 04:09:16;;;;;;;8.32;3.58;;;;;;;;;;6271259;22;20038;-64
2022/01/19 04:11:43;;;;;;;7.68;3.10;;;;;;;;;;6271090;22;20000;-63
2022/01/19 04:16:35;;;;;;;11.20;3.40;;;;;;;;;;6269954;22;20018;-63
2022/01/19 04:19:23;;;;;;;5.75;2.97;;;;;;;;;;6271305;22;20008;-63
2022/01/19 04:21:47;;;;;;;6.65;3.30;;;;;;;;;;6271210;22;19999;-64
2022/01/19 04:24:13;;;;;;;8.50;3.45;;;;;;;;;;6270367;22;20030;-64
2022/01/19 04:26:39;;;;;;;7.75;3.55;;;;;;;;;;6271612;22;20426;-64
2022/01/19 04:29:05;;;;;;;9.73;4.03;;;;;;;;;;6270265;22;20014;-63
2022/01/19 04:31:32;;;;;;;6.25;3.40;;;;;;;;;;6271612;22;20030;-64
2022/01/19 04:34:03;;;;;;;6.75;2.75;;;;;;;;;;6270635;22;20035;-64
2022/01/19 04:36:37;;;;;;;6.82;2.70;;;;;;;;;;6273309;22;20065;-65
2022/01/19 05:03:22;;;;;;;9.70;2.92;;;;;;;;;;6271228;22;20025;-64
2022/01/19 05:06:03;;;;;;;4.95;2.30;;;;;;;;;;6271517;22;20065;-64
2022/01/19 05:13:50;;;;;;;8.55;2.83;;;;;;;;;;6272890;22;20061;-63
2022/01/19 05:16:16;;;;;;;5.55;2.45;;;;;;;;;;6272076;22;20000;-64
2022/01/19 05:18:42;;;;;;;6.88;2.63;;;;;;;;;;6272888;22;20019;-64
2022/01/19 05:21:08;;;;;;;4.20;2.80;;;;;;;;;;6272990;22;20118;-64
2022/01/19 05:23:34;;;;;;;2.45;2.00;;;;;;;;;;6273879;22;20011;-63
2022/01/19 05:26:00;;;;;;;10.73;2.53;;;;;;;;;;6272511;22;20082;-64
2022/01/19 05:28:26;;;;;;;8.02;2.50;;;;;;;;;;6274103;22;20466;-63
2022/01/19 05:30:52;;;;;;;7.30;2.10;;;;;;;;;;6272635;22;20448;-64
2022/01/19 05:33:18;;;;;;;4.88;2.30;;;;;;;;;;6273217;22;20061;-64
2022/01/19 05:35:44;;;;;;;3.25;2.08;;;;;;;;;;6272258;22;20042;-63
2022/01/19 05:38:10;;;;;;;9.70;2.58;;;;;;;;;;6273571;22;20000;-63
2022/01/19 05:40:36;;;;;;;4.60;2.25;;;;;;;;;;6272547;22;20414;-63
2022/01/19 05:43:03;;;;;;;6.43;2.53;;;;;;;;;;6273738;22;20068;-63
2022/01/19 05:45:29;;;;;;;11.55;2.40;;;;;;;;;;6272179;22;20004;-63
2022/01/19 05:47:55;;;;;;;8.68;3.20;;;;;;;;;;6273400;22;20026;-64
2022/01/19 05:50:22;;;;;;;6.97;2.35;;;;;;;;;;6272229;22;20438;-64
2022/01/19 05:52:48;;;;;;;5.63;2.47;;;;;;;;;;6273127;22;20379;-64
2022/01/19 05:55:14;;;;;;;7.88;1.92;;;;;;;;;;6271580;22;20014;-64
2022/01/19 05:57:40;;;;;;;4.47;2.22;;;;;;;;;;6274448;22;20020;-64
2022/01/19 06:00:06;;;;;;;5.53;2.30;;;;;;;;;;6272144;22;20169;-64
2022/01/19 06:02:32;;;;;;;3.80;2.00;;;;;;;;;;6273680;22;20004;-64
2022/01/19 06:04:58;;;;;;;12.07;3.42;;;;;;;;;;6270315;22;20069;-64
2022/01/19 06:07:28;;;;;;;5.85;2.55;;;;;;;;;;6271644;22;20451;-65
2022/01/19 06:10:05;;;;;;;6.35;2.22;;;;;;;;;;6273656;22;20004;-64
2022/01/19 06:12:31;;;;;;;4.82;1.98;;;;;;;;;;6271744;22;20011;-67
2022/01/19 06:14:57;;;;;;;6.55;2.72;;;;;;;;;;6272351;22;20004;-64
2022/01/19 06:17:23;;;;;;;6.55;2.30;;;;;;;;;;6271902;22;20004;-64
2022/01/19 06:19:50;;;;;;;7.43;2.72;;;;;;;;;;6272837;22;20029;-63
2022/01/19 06:22:17;;;;;;;9.02;2.60;;;;;;;;;;6272425;22;19995;-64
2022/01/19 06:24:44;;;;;;;5.75;2.13;;;;;;;;;;6272694;22;20019;-63
2022/01/19 06:27:10;;;;;;;4.15;1.92;;;;;;;;;;6271694;22;19995;-64
2022/01/19 06:29:36;;;;;;;5.43;2.10;;;;;;;;;;6272709;22;19999;-63
2022/01/19 06:32:02;;;;;;;5.50;1.60;;;;;;;;;;6270849;22;20031;-64
2022/01/19 06:34:28;;;;;;;3.35;1.65;;;;;;;;;;6273017;22;20334;-64
2022/01/19 06:36:56;;;;;;;4.10;1.90;;;;;;;;;;6272097;22;20016;-65
2022/01/19 06:39:22;;;;;;;4.97;1.80;;;;;;;;;;6272781;22;20003;-64
2022/01/19 06:41:48;;;;;;;4.32;1.70;;;;;;;;;;6271216;22;20000;-69
2022/01/19 06:44:15;;;;;;;5.78;1.70;;;;;;;;;;6271784;22;20083;-63
2022/01/19 06:46:43;;;;;;;4.55;2.20;;;;;;;;;;6273113;22;20008;-64
2022/01/19 06:49:09;;;;;;;6.75;2.08;;;;;;;;;;6271164;22;20418;-64
2022/01/19 06:51:35;;;;;;;5.47;1.85;;;;;;;;;;6272776;22;20054;-63
2022/01/19 06:54:01;;;;;;;6.90;2.05;;;;;;;;;;6271389;22;20015;-64
2022/01/19 06:56:27;;;;;;;5.57;2.10;;;;;;;;;;6272800;22;20493;-64
2022/01/19 06:58:53;;;;;;;4.60;1.88;;;;;;;;;;6271406;22;20006;-64
2022/01/19 07:01:20;;;;;;;6.60;2.58;;;;;;;;;;6271648;22;20022;-64
2022/01/19 07:03:46;;;;;;;5.18;2.20;;;;;;;;;;6271801;22;20075;-64
2022/01/19 07:06:12;;;;;;;4.40;1.95;;;;;;;;;;6271690;22;19999;-64
2022/01/19 07:08:39;;;;;;;8.02;2.38;;;;;;;;;;6272642;22;20071;-63
2022/01/19 07:11:05;;;;;;;5.68;2.22;;;;;;;;;;6271814;22;20004;-64
2022/01/19 07:13:31;;;;;;;3.78;1.70;;;;;;;;;;6272613;22;20019;-63
2022/01/19 07:15:57;;;;;;;8.88;2.15;;;;;;;;;;6271522;22;20553;-64
2022/01/19 07:18:23;;;;;;;9.00;2.45;;;;;;;;;;6271855;22;20007;-65
2022/01/19 07:20:49;;;;;;;11.82;2.70;;;;;;;;;;6271460;22;20010;-65
2022/01/19 07:23:15;;;;;;;8.52;2.15;;;;;;;;;;6272073;22;20003;-64
2022/01/19 07:25:41;;;;;;;8.05;2.05;;;;;;;;;;6271478;22;20083;-64
2022/01/19 07:28:11;;;;;;;8.63;2.28;;;;;;;;;;6270943;22;20004;-64
2022/01/19 07:30:37;;;;;;;6.57;2.17;;;;;;;;;;6271126;22;20081;-64
2022/01/19 07:33:03;;;;;;;8.95;2.00;;;;;;;;;;6271871;22;20077;-64
2022/01/19 07:35:29;;;;;;;7.75;2.20;;;;;;;;;;6271164;22;20319;-63
2022/01/19 07:37:55;;;;;;;10.13;3.13;;;;;;;;;;6271659;22;20415;-64
2022/01/19 07:40:22;;;;;;;8.82;2.80;;;;;;;;;;6271197;22;20079;-63
2022/01/19 07:42:48;;;;;;;5.55;2.17;;;;;;;;;;6269985;22;20012;-63
2022/01/19 07:45:14;;;;;;;4.78;2.10;;;;;;;;;;6271160;22;20082;-64
2022/01/19 07:47:41;;;;;;;7.55;2.55;;;;;;;;;;6271243;22;20441;-65
2022/01/19 07:50:07;;;;;;;3.28;1.85;;;;;;;;;;6272011;22;20007;-64
2022/01/19 07:52:33;;;;;;;7.85;2.50;;;;;;;;;;6271114;22;20007;-64
2022/01/19 07:54:59;;;;;;;7.95;2.30;;;;;;;;;;6272048;22;20037;-64
2022/01/19 07:57:25;;;;;;;6.78;2.40;;;;;;;;;;6271129;22;19996;-63
2022/01/19 07:59:51;;;;;;;6.60;2.47;;;;;;;;;;6271865;22;20003;-63
2022/01/19 08:02:18;;;;;;;5.63;2.10;;;;;;;;;;6270935;22;20544;-64
2022/01/19 08:04:44;;;;;;;9.27;2.65;;;;;;;;;;6272024;22;20003;-64
2022/01/19 08:07:10;;;;;;;10.77;2.72;;;;;;;;;;6270414;22;20011;-64
2022/01/19 08:09:36;;;;;;;8.13;2.92;;;;;;;;;;6270800;22;20018;-64
2022/01/19 08:12:03;;;;;;;7.88;2.40;;;;;;;;;;6271638;22;20416;-65
2022/01/19 08:14:29;;;;;;;7.82;2.33;;;;;;;;;;6269160;22;20312;-64
2022/01/19 08:16:56;;;;;;;6.38;3.20;;;;;;;;;;6268046;22;20008;-64
2022/01/19 08:19:22;;;;;;;10.65;3.65;;;;;;;;;;6268320;22;20018;-64
2022/01/19 08:21:48;;;;;;;8.65;3.13;;;;;;;;;;6268387;22;20426;-64
2022/01/19 08:24:14;;;;;;;5.90;2.38;;;;;;;;;;6267909;22;20537;-64
2022/01/19 08:26:40;;;;;;;6.82;2.80;;;;;;;;;;6268533;22;20031;-64
2022/01/19 08:29:07;;;;;;;8.18;3.05;;;;;;;;;;6270509;22;20004;-64
2022/01/19 08:31:33;;;;;;;11.00;3.88;;;;;;;;;;6275603;22;20027;-72
2022/01/19 08:33:59;;;;;;;11.63;4.68;;;;;;;;;;6274691;22;20012;-72
2022/01/19 08:36:26;;;;;;;7.10;3.03;;;;;;;;;;6272286;22;20034;-65
2022/01/19 08:38:53;;;;;;;8.85;3.42;;;;;;;;;;6270930;22;20027;-66
2022/01/19 08:41:19;;;;;;;10.80;2.45;;;;;;;;;;6267787;22;20004;-64
2022/01/19 08:43:45;;;;;;;6.38;2.20;;;;;;;;;;6270359;22;20003;-64
2022/01/19 08:46:11;;;;;;;4.68;2.92;;;;;;;;;;6269117;22;20402;-64
2022/01/19 08:48:37;;;;;;;7.47;2.20;;;;;;;;;;6269531;22;20014;-64
2022/01/19 08:51:04;;;;;;;6.47;2.15;;;;;;;;;;6268921;22;20007;-63
2022/01/19 08:53:30;;;;;;;9.48;4.25;;;;;;;;;;6268605;22;20004;-64
2022/01/19 08:55:57;;;;;;;8.85;3.17;;;;;;;;;;6269906;22;19999;-64
2022/01/19 08:58:23;;;;;;;7.38;2.88;;;;;;;;;;6268390;22;20607;-63
2022/01/19 09:00:49;;;;;;;7.60;2.83;;;;;;;;;;6267750;22;20007;-64
2022/01/19 09:03:16;;;;;;;8.15;2.47;;;;;;;;;;6268989;22;20002;-63
2022/01/19 09:05:42;;;;;;;12.82;4.00;;;;;;;;;;6273438;22;20035;-65
2022/01/19 09:08:09;;;;;;;6.70;2.00;;;;;;;;;;6271807;22;20659;-64
2022/01/19 09:10:36;;;;;;;7.43;2.30;;;;;;;;;;6268701;22;20004;-63
2022/01/19 09:13:02;;;;;;;10.63;2.25;;;;;;;;;;6269205;22;20386;-64
2022/01/19 09:15:28;;;;;;;6.75;2.97;;;;;;;;;;6268440;22;20004;-64
2022/01/19 09:17:54;;;;;;;4.13;2.35;;;;;;;;;;6270012;22;20030;-64
2022/01/19 09:20:20;;;;;;;6.07;2.15;;;;;;;;;;6268229;22;19999;-64
2022/01/19 09:22:47;;;;;;;10.63;2.70;;;;;;;;;;6271946;22;20093;-64
2022/01/19 09:25:14;;;;;;;4.25;2.08;;;;;;;;;;6269159;22;20060;-64
2022/01/19 09:27:40;;;;;;;6.53;3.35;;;;;;;;;;6268915;22;20004;-64
2022/01/19 09:30:11;;;;;;;8.10;2.63;;;;;;;;;;6268710;22;20081;-63
2022/01/19 09:32:39;;;;;;;4.80;2.50;;;;;;;;;;6270248;22;20022;-64
2022/01/19 09:35:10;;;;;;;6.75;2.22;;;;;;;;;;6269362;22;20069;-64
2022/01/19 09:37:37;;;;;;;9.90;3.25;;;;;;;;;;6268813;22;20000;-63
2022/01/19 09:40:04;;;;;;;10.23;3.03;;;;;;;;;;6267531;22;20007;-68
2022/01/19 09:42:30;;;;;;;11.95;4.80;;;;;;;;;;6270997;22;19999;-63
2022/01/19 09:44:56;;;;;;;8.50;3.35;;;;;;;;;;6271748;22;20003;-64
2022/01/19 09:47:22;;;;;;;6.05;2.40;;;;;;;;;;6271306;22;20003;-64
2022/01/19 09:49:48;;;;;;;8.30;3.83;;;;;;;;;;6267507;22;20044;-64
2022/01/19 09:52:14;;;;;;;3.92;2.65;;;;;;;;;;6268686;22;20003;-63
2022/01/19 09:54:41;;;;;;;12.60;2.67;;;;;;;;;;6267634;22;20003;-64
2022/01/19 09:57:07;;;;;;;6.45;2.40;;;;;;;;;;6271664;22;20038;-64
2022/01/19 09:59:33;;;;;;;9.10;3.28;;;;;;;;;;6272001;22;20326;-65
2022/01/19 10:02:03;;;;;;;8.25;3.55;;;;;;;;;;6271566;22;20032;-64
2022/01/19 10:04:31;;;;;;;6.28;3.78;;;;;;;;;;6270560;22;19996;-64
2022/01/19 10:07:16;;;;;;;17.15;5.70;;;;;;;;;;6268608;22;20010;-64
2022/01/19 10:09:49;;;;;;;10.20;3.40;;;;;;;;;;6267708;22;20071;-65
2022/01/19 10:18:06;;;;;;;13.65;4.20;;;;;;;;;;6272547;22;20010;-64
2022/01/19 10:20:32;;;;;;;14.57;7.00;;;;;;;;;;6272017;22;20320;-64
2022/01/19 10:22:58;;;;;;;14.65;7.78;;;;;;;;;;6272015;22;20482;-65
2022/01/19 10:25:24;;;;;;;8.20;4.13;;;;;;;;;;6270241;22;20027;-65
2022/01/19 10:27:50;;;;;;;14.60;3.75;;;;;;;;;;6268823;22;20034;-66
2022/01/19 10:30:21;;;;;;;12.02;2.95;;;;;;;;;;6270800;22;20014;-64
2022/01/19 10:32:50;;;;;;;4.07;2.40;;;;;;;;;;6272329;22;20043;-63
2022/01/19 10:35:16;;;;;;;4.75;2.15;;;;;;;;;;6271925;22;20086;-64
2022/01/19 10:37:42;;;;;;;5.57;2.83;;;;;;;;;;6272216;22;19999;-65
2022/01/19 10:40:13;;;;;;;10.32;2.42;;;;;;;;;;6271385;22;20072;-64
2022/01/19 10:42:40;;;;;;;7.15;2.28;;;;;;;;;;6272320;22;20459;-65
2022/01/19 10:45:07;;;;;;;8.93;2.70;;;;;;;;;;6271986;22;20008;-65
2022/01/19 10:47:53;;;;;;;9.50;3.08;;;;;;;;;;6271692;22;20367;-66
2022/01/19 10:50:31;;;;;;;8.88;3.60;;;;;;;;;;6271263;22;20003;-64
2022/01/19 10:52:58;;;;;;;9.15;3.70;;;;;;;;;;6269529;22;20014;-65
2022/01/19 10:55:26;;;;;;;8.10;2.97;;;;;;;;;;6268108;22;20008;-64
2022/01/19 10:57:53;;;;;;;5.97;2.45;;;;;;;;;;6268922;22;20496;-64
2022/01/19 11:00:22;;;;;;;7.57;2.92;;;;;;;;;;6267449;22;20026;-64
2022/01/19 11:02:49;;;;;;;9.30;3.50;;;;;;;;;;6266936;22;19999;-66
2022/01/19 11:05:16;;;;;;;9.60;3.58;;;;;;;;;;6268286;22;20238;-64
2022/01/19 11:07:42;;;;;;;11.38;3.78;;;;;;;;;;6266004;22;20323;-64
2022/01/19 11:10:12;;;;;;;5.80;3.08;;;;;;;;;;6268566;22;20326;-64
2022/01/19 11:12:48;;;;;;;9.63;2.83;;;;;;;;;;6269377;22;20074;-64
2022/01/19 11:15:14;;;;;;;;;;;;;;;;;;6269609;22;20004;-65
2022/01/19 11:17:40;;;;;;;;;;;;;;;;;;6267696;22;20310;-64
2022/01/19 11:20:07;;;;;;;;;;;;;;;;;;6267810;22;19907;-64
2022/01/19 11:22:36;;;;;;;10.45;4.18;;;;;;;;;;6270563;22;19945;-65
2022/01/19 11:25:20;;;;;;;10.23;3.22;;;;;;;;;;6272246;22;20381;-64
2022/01/19 11:27:47;;;;;;;4.32;2.95;;;;;;;;;;6271015;22;20262;-65
2022/01/19 11:30:19;;;;;;;4.97;3.15;;;;;;;;;;6271875;22;20003;-64
2022/01/19 11:33:05;;;;;;;9.77;2.78;;;;;;;;;;6270802;22;20046;-64
2022/01/19 11:35:32;;;;;;;9.90;2.63;;;;;;;;;;6271869;22;20305;-65
2022/01/19 11:37:59;;;;;;;6.50;2.70;;;;;;;;;;6270399;22;20388;-67
2022/01/19 11:40:33;;;;;;;10.15;2.78;;;;;;;;;;6271686;22;20060;-65
2022/01/19 11:43:17;;;;;;;4.87;2.67;;;;;;;;;;6271568;22;20088;-64
2022/01/19 11:45:43;;;;;;;7.00;2.53;;;;;;;;;;6272821;22;20011;-65
2022/01/19 11:48:13;;;;;;;6.68;2.28;;;;;;;;;;6270687;22;20003;-64
2022/01/19 11:50:40;;;;;;;6.75;3.30;;;;;;;;;;6272288;22;20007;-65
2022/01/19 11:53:09;;;;;;;5.13;2.28;;;;;;;;;;6270105;22;20082;-65
2022/01/19 11:55:36;;;;;;;8.45;3.08;;;;;;;;;;6271281;22;20000;-64
2022/01/19 11:58:16;;;;;;;4.68;2.40;;;;;;;;;;6270852;22;20050;-64
2022/01/19 12:00:43;;;;;;;8.93;2.58;;;;;;;;;;6271468;22;20063;-64
2022/01/19 12:03:29;;;;;;;4.38;2.00;;;;;;;;;;6270516;22;20010;-65
2022/01/19 12:05:56;;;;;;;7.20;3.38;;;;;;;;;;6271881;22;20000;-65
2022/01/19 12:08:31;;;;;;;5.78;2.35;;;;;;;;;;6270021;22;20500;-66
2022/01/19 12:11:04;;;;;;;6.80;2.20;;;;;;;;;;6272017;22;20053;-65
2022/01/19 12:16:18;;;;;;;9.40;2.88;;;;;;;;;;6281742;22;20061;-65
2022/01/19 12:19:03;;;;;;;11.82;4.20;;;;;;;;;;6269998;22;19999;-64
2022/01/19 12:21:32;;;;;;;5.93;2.28;;;;;;;;;;6273666;22;20010;-64
2022/01/19 12:24:34;;;;;;;7.93;2.30;;;;;;;;;;6272616;22;20004;-65
2022/01/19 12:27:03;;;;;;;4.93;2.35;;;;;;;;;;6179754;23;20080;-64
2022/01/19 12:29:37;;;;;;;8.43;2.38;;;;;;;;;;6254856;22;20030;-65
2022/01/19 12:32:26;;;;;;;4.70;2.90;;;;;;;;;;6273252;22;20011;-64
2022/01/19 12:34:57;;;;;;;6.05;2.17;;;;;;;;;;6272533;22;20011;-65
2022/01/19 12:37:47;;;;;;;5.20;2.58;;;;;;;;;;6273176;22;20034;-65
2022/01/19 12:40:19;;;;;;;4.47;2.45;;;;;;;;;;6273119;22;19996;-64
2022/01/19 12:42:50;;;;;;;11.18;2.42;;;;;;;;;;6272627;22;20645;-63
2022/01/19 12:45:20;;;;;;;5.13;2.40;;;;;;;;;;6272580;22;20052;-63
2022/01/19 12:47:50;;;;;;;6.30;3.17;;;;;;;;;;6273207;22;20004;-63
2022/01/19 12:50:16;;;;;;;9.25;2.95;;;;;;;;;;6272087;22;20033;-64
2022/01/19 12:52:47;;;;;;;6.85;2.25;;;;;;;;;;6271692;22;20004;-65
2022/01/19 12:55:17;;;;;;;4.82;2.10;;;;;;;;;;6272034;22;20593;-64
2022/01/19 12:57:44;;;;;;;5.85;1.98;;;;;;;;;;6272850;22;19996;-64
2022/01/19 13:00:15;;;;;;;6.40;2.63;;;;;;;;;;6270802;22;20441;-64
2022/01/19 13:02:41;;;;;;;5.55;2.55;;;;;;;;;;6268395;22;20079;-64
2022/01/19 13:05:08;;;;;;;6.00;2.30;;;;;;;;;;6269549;22;20007;-64
2022/01/19 13:07:38;;;;;;;8.27;2.30;;;;;;;;;;6269176;22;20035;-64
2022/01/19 13:10:22;;;;;;;4.63;2.25;;;;;;;;;;6268942;22;20011;-63
2022/01/19 13:15:46;;;;;;;8.00;2.90;;;;;;;;;;6269397;22;20504;-64
2022/01/19 13:18:13;;;;;;;7.18;2.65;;;;;;;;;;6268595;22;19995;-65
2022/01/19 13:20:49;;;;;;;8.30;3.00;;;;;;;;;;6270730;22;19999;-63
2022/01/19 13:23:15;;;;;;;7.78;3.28;;;;;;;;;;6268136;22;20075;-65
2022/01/19 13:25:41;;;;;;;11.93;3.00;;;;;;;;;;6269249;22;20007;-64
2022/01/19 13:28:07;;;;;;;5.72;2.75;;;;;;;;;;6270450;22;20003;-64
2022/01/19 13:30:34;;;;;;;4.78;2.40;;;;;;;;;;6269005;22;20023;-64
2022/01/19 13:33:10;;;;;;;7.72;3.03;;;;;;;;;;6269316;22;20019;-64
2022/01/19 13:35:37;;;;;;;10.50;4.15;;;;;;;;;;6268909;22;20012;-64
2022/01/19 13:38:09;;;;;;;6.25;2.78;;;;;;;;;;6269307;22;20011;-63
2022/01/19 13:40:35;;;;;;;9.25;3.78;;;;;;;;;;6271566;22;20003;-64
2022/01/19 13:43:05;;;;;;;12.25;3.38;;;;;;;;;;6272497;22;20007;-63
2022/01/19 13:48:21;;;;;;;11.80;5.95;;;;;;;;;;6279175;22;20091;-64
2022/01/19 13:50:47;;;;;;;6.60;2.88;;;;;;;;;;6268994;22;20003;-64
2022/01/19 13:53:14;;;;;;;5.72;2.63;;;;;;;;;;6267819;22;20539;-64
2022/01/19 13:55:41;;;;;;;6.05;2.50;;;;;;;;;;6269127;22;20316;-65
2022/01/19 13:58:14;;;;;;;8.45;2.47;;;;;;;;;;6269254;22;20053;-65
2022/01/19 14:00:50;;;;;;;2.60;2.28;;;;;;;;;;6269037;22;20482;-65
2022/01/19 14:03:16;;;;;;;5.45;2.78;;;;;;;;;;6270735;22;20080;-64
2022/01/19 14:05:44;;;;;;;7.38;2.30;;;;;;;;;;6272298;22;20012;-64
2022/01/19 14:08:11;;;;;;;7.47;2.75;;;;;;;;;;6273251;22;20493;-66
2022/01/19 14:10:40;;;;;;;6.80;2.50;;;;;;;;;;6273269;22;20080;-65
2022/01/19 14:13:26;;;;;;;7.90;3.25;;;;;;;;;;6273324;22;20003;-65
2022/01/19 14:15:53;;;;;;;8.10;2.80;;;;;;;;;;6271452;22;20008;-66
2022/01/19 14:18:20;;;;;;;5.28;2.90;;;;;;;;;;6272430;22;19996;-65
2022/01/19 14:21:04;;;;;;;6.15;2.92;;;;;;;;;;6273555;22;20496;-65
2022/01/19 14:23:30;;;;;;;6.30;2.35;;;;;;;;;;6272880;22;19995;-66
2022/01/19 14:26:09;;;;;;;5.43;2.17;;;;;;;;;;6273189;22;20007;-65
2022/01/19 14:28:37;;;;;;;5.68;2.80;;;;;;;;;;6268644;22;20015;-65
2022/01/19 14:31:04;;;;;;;7.85;3.13;;;;;;;;;;6269359;22;20427;-69
2022/01/19 14:33:30;;;;;;;6.38;2.63;;;;;;;;;;6268409;22;20437;-66
2022/01/19 14:35:59;;;;;;;5.38;2.65;;;;;;;;;;6270167;22;20004;-66
2022/01/19 14:38:36;;;;;;;8.73;2.50;;;;;;;;;;6269205;22;20002;-70
2022/01/19 14:41:08;;;;;;;6.47;2.67;;;;;;;;;;6268948;22;20315;-66
2022/01/19 14:43:43;;;;;;;7.13;2.80;;;;;;;;;;6267795;22;19996;-65
2022/01/19 14:46:12;;;;;;;8.30;3.17;;;;;;;;;;6268082;22;20610;-65
2022/01/19 14:48:38;;;;;;;6.68;2.80;;;;;;;;;;6267073;22;20010;-65
2022/01/19 14:51:17;;;;;;;11.05;4.13;;;;;;;;;;6268292;22;20003;-64
2022/01/19 14:53:44;;;;;;;15.25;5.63;;;;;;;;;;6270352;22;20003;-64
2022/01/19 14:56:10;;;;;;;29.02;13.10;;;;;;;;;;6273281;22;20053;-65
2022/01/19 14:58:36;;;;;;;15.98;6.25;;;;;;;;;;6274606;22;20006;-69
2022/01/19 15:01:02;;;;;;;11.63;4.70;;;;;;;;;;6275064;22;20430;-64
2022/01/19 15:03:28;;;;;;;15.73;5.65;;;;;;;;;;6272002;22;20020;-64
2022/01/19 15:05:55;;;;;;;13.75;5.63;;;;;;;;;;6272236;22;20488;-64
2022/01/19 15:08:21;;;;;;;10.73;3.28;;;;;;;;;;6270605;22;19999;-69
2022/01/19 15:10:47;;;;;;;8.07;4.28;;;;;;;;;;6272083;22;20031;-65
2022/01/19 15:13:13;;;;;;;10.32;5.30;;;;;;;;;;6271807;22;20082;-64
2022/01/19 15:15:39;;;;;;;8.82;4.82;;;;;;;;;;6270714;22;20004;-65
2022/01/19 15:18:06;;;;;;;6.80;2.80;;;;;;;;;;6271189;22;20535;-64
2022/01/19 15:20:37;;;;;;;9.77;4.88;;;;;;;;;;6271218;22;19996;-65
2022/01/19 15:23:03;;;;;;;8.20;4.13;;;;;;;;;;6271285;22;20378;-64
2022/01/19 15:25:30;;;;;;;9.32;3.88;;;;;;;;;;6269998;22;20042;-64
2022/01/19 15:27:58;;;;;;;7.97;3.33;;;;;;;;;;6272307;22;19999;-65
2022/01/19 15:30:26;;;;;;;8.40;3.47;;;;;;;;;;6269363;22;20503;-65
2022/01/19 15:32:52;;;;;;;13.30;4.90;;;;;;;;;;6271085;22;20450;-65
2022/01/19 15:35:19;;;;;;;39.95;12.95;;;;;;;;;;6270822;22;20000;-65
2022/01/19 15:37:45;;;;;;;11.45;5.03;;;;;;;;;;6271630;22;20038;-63
2022/01/19 15:40:15;;;;;;;60.45;23.73;;;;;;;;;;6269505;22;20569;-65
2022/01/19 15:42:42;;;;;;;54.15;20.88;;;;;;;;;;6271181;22;20699;-64
2022/01/19 15:45:08;;;;;;;13.63;4.95;;;;;;;;;;6271479;22;20006;-65
2022/01/19 15:47:34;;;;;;;15.15;5.43;;;;;;;;;;6271833;22;19999;-65
2022/01/19 15:50:00;;;;;;;7.15;3.42;;;;;;;;;;6270138;22;20057;-65
2022/01/19 15:52:26;;;;;;;10.77;4.00;;;;;;;;;;6270149;22;20624;-64
2022/01/19 15:54:53;;;;;;;9.80;4.82;;;;;;;;;;6271500;22;20007;-64
2022/01/19 15:57:19;;;;;;;6.68;4.10;;;;;;;;;;6270714;22;20023;-64
2022/01/19 15:59:45;;;;;;;5.47;3.45;;;;;;;;;;6270781;22;20447;-64
2022/01/19 16:02:12;;;;;;;5.65;3.40;;;;;;;;;;6269309;22;20054;-64
2022/01/19 16:04:38;;;;;;;17.25;9.77;;;;;;;;;;6271094;22;20000;-65
2022/01/19 16:07:05;;;;;;;15.35;9.15;;;;;;;;;;6271435;22;20031;-65
2022/01/19 16:09:31;;;;;;;131.02;67.25;;;;;;;;;;6271020;22;20518;-65
2022/01/19 16:11:57;;;;;;;116.13;58.92;;;;;;;;;;6269765;22;20007;-64
2022/01/19 16:14:23;;;;;;;343.75;159.70;;;;;;;;;;6270686;22;20329;-64
2022/01/19 16:16:49;;;;;;;128.85;58.97;;;;;;;;;;6269914;22;20446;-64
2022/01/19 16:19:16;;;;;;;156.05;67.85;;;;;;;;;;6270741;22;20000;-65
2022/01/19 16:21:43;;;;;;;253.85;120.22;;;;;;;;;;6270800;22;20498;-63
2022/01/19 16:26:55;;;;;;;30.05;18.55;;;;;;;;;;6271056;22;20519;-64